Skip Navigation Links Skip Navigation Links

Current Weather

Kaltag, Alaska

For information only: do not use for flight planning or navigation.
Latest weather
Observation time Tuesday, October 26, 2021 9:53 PM AKDT
Local time Tuesday, October 26, 2021 10:58 PM AKDT
Flight conditions Visual Meteorological Conditions
Winds
Wind direction Southwest (230°)
Wind speed 6 mph
Visibility 10 mi.
Sky condition
Ceiling unlimited
Sky clear
Temperature 14°F
Dewpoint 8°F
Altimeter 29.55 in.Hg
Pressure change last 3 hours-0.02 in.Hg
Pressure rising more slowly
Derived measurements
Relative humidity 77%
Wind chill 5°F
Density altitude -2452 ft.
Sea-level pressure 29.56 in.Hg
Climate data
Temperature minimum, last 6 hours 12°F
Temperature maximum, last 6 hours 28°F
Remarks
Fully automated report.
System requires maintenance.
Automated weather observing station with precipitation discriminator.
Lightning detection system not operating.
METAR PAKV 270553Z AUTO 23005KT 10SM CLR M10/M13 A2955 RMK AO2 SLP010 T11001133 11022 21111 51006 TSNO $

Settings

Location code

InnerDrive.Weather 4.0.6770.0 Release CLR 4.0.30319.42000
Copyright ©2018 Inner Drive Technology. All rights reserved. Portions Copyright ©1986-2018 David Braverman.

Find weather

Site navigation


Skip Navigation Links

Place info

Page info

PayPal - The safer, easier way to pay online!

Return home.

Copyright ©2021 Inner Drive Technology. Purveyors of fine, hand-crafted computer software. Page printed 2021-10-27T06:58:00 UTC.